createdAt,value
2022-08-23T00:00:00.056Z,89.90
2022-08-23T00:02:27.960Z,90.00
2022-08-23T00:05:08.012Z,89.90
2022-08-23T00:07:39.148Z,89.90
2022-08-23T00:10:08.796Z,90.00
2022-08-23T00:12:35.562Z,90.00
2022-08-23T00:15:02.403Z,90.00
2022-08-23T00:17:34.491Z,90.00
2022-08-23T00:20:11.540Z,90.00
2022-08-23T00:22:40.018Z,90.00
2022-08-23T00:25:09.536Z,90.00
2022-08-23T00:27:36.372Z,90.00
2022-08-23T00:30:06.798Z,90.10
2022-08-23T00:32:38.182Z,90.00
2022-08-23T00:35:05.994Z,90.10
2022-08-23T00:37:32.970Z,90.10
2022-08-23T00:40:00.814Z,90.10
2022-08-23T00:43:13.260Z,90.10
2022-08-23T00:46:05.522Z,90.10
2022-08-23T00:48:33.398Z,90.10
2022-08-23T00:51:12.602Z,90.40
2022-08-23T00:53:43.663Z,90.10
2022-08-23T00:56:13.338Z,90.10
2022-08-23T00:58:40.169Z,90.10
2022-08-23T01:01:07.201Z,90.10
2022-08-23T01:03:38.563Z,90.20
2022-08-23T01:06:15.033Z,90.20
2022-08-23T01:08:46.655Z,90.20
2022-08-23T01:11:33.318Z,90.40
2022-08-23T01:14:14.460Z,90.10
2022-08-23T01:16:49.060Z,90.20
2022-08-23T01:19:32.835Z,90.20
2022-08-23T01:22:10.822Z,90.20
2022-08-23T01:25:06.312Z,90.20
2022-08-23T01:27:25.685Z,90.20
2022-08-23T01:29:52.460Z,90.20
2022-08-23T01:32:19.758Z,90.20
2022-08-23T01:34:51.862Z,90.20
2022-08-23T01:37:20.872Z,90.30
2022-08-23T01:39:47.715Z,90.30
2022-08-23T01:42:14.464Z,90.30
2022-08-23T01:44:41.199Z,90.30
2022-08-23T01:47:09.230Z,90.30
2022-08-23T01:49:35.908Z,90.30
2022-08-23T01:52:02.975Z,90.40
2022-08-23T01:54:29.651Z,90.30
2022-08-23T01:56:56.600Z,90.30
2022-08-23T01:59:24.238Z,90.30
2022-08-23T02:01:51.540Z,90.30
2022-08-23T02:04:18.380Z,90.30
2022-08-23T02:06:45.682Z,90.40
2022-08-23T02:09:17.113Z,90.40
2022-08-23T02:11:45.577Z,90.40
2022-08-23T02:14:16.769Z,90.40
2022-08-23T02:17:04.508Z,90.30
2022-08-23T02:19:33.441Z,90.20
2022-08-23T02:22:00.597Z,90.40
2022-08-23T02:24:27.511Z,90.40
2022-08-23T02:26:56.960Z,90.40
2022-08-23T02:29:25.611Z,90.40
2022-08-23T02:31:52.936Z,90.40
2022-08-23T02:34:20.390Z,90.40
2022-08-23T02:36:47.924Z,90.50
2022-08-23T02:39:17.274Z,90.40
2022-08-23T02:41:44.604Z,90.50
2022-08-23T02:44:11.692Z,90.50
2022-08-23T02:46:39.698Z,90.40
2022-08-23T02:49:07.043Z,90.50
2022-08-23T02:51:34.928Z,90.50
2022-08-23T02:54:01.710Z,90.50
2022-08-23T02:56:28.434Z,90.40
2022-08-23T02:58:56.368Z,90.30
2022-08-23T03:01:26.988Z,90.40
2022-08-23T03:03:54.001Z,90.40
2022-08-23T03:06:25.428Z,90.50
2022-08-23T03:08:56.539Z,90.50
2022-08-23T03:11:23.731Z,90.40
2022-08-23T03:13:51.464Z,90.40
2022-08-23T03:16:19.061Z,90.40
2022-08-23T03:18:48.717Z,90.50
2022-08-23T03:21:16.138Z,90.40
2022-08-23T03:23:43.215Z,90.60
2022-08-23T03:26:12.761Z,90.50
2022-08-23T03:28:41.895Z,90.50
2022-08-23T03:31:09.657Z,90.70
2022-08-23T03:33:37.051Z,90.60
2022-08-23T03:36:08.884Z,90.60
2022-08-23T03:38:36.841Z,90.60
2022-08-23T03:41:04.137Z,90.60
2022-08-23T03:43:30.986Z,90.50
2022-08-23T03:45:57.814Z,90.60
2022-08-23T03:48:25.328Z,90.60
2022-08-23T03:50:54.706Z,90.60
2022-08-23T03:53:24.063Z,90.70
2022-08-23T03:55:53.263Z,90.60
2022-08-23T03:58:21.489Z,90.70
2022-08-23T04:00:48.911Z,90.70
2022-08-23T04:03:16.166Z,90.70
2022-08-23T04:05:43.609Z,90.60
2022-08-23T04:08:11.145Z,90.70
2022-08-23T04:10:39.385Z,90.70
2022-08-23T04:13:09.017Z,90.60
2022-08-23T04:15:36.596Z,90.60
2022-08-23T04:18:04.053Z,90.60
2022-08-23T04:20:30.929Z,90.60
2022-08-23T04:22:58.066Z,90.70
2022-08-23T04:25:34.471Z,90.60
2022-08-23T04:28:02.766Z,90.70
2022-08-23T04:30:30.476Z,90.60
2022-08-23T04:32:57.388Z,90.70
2022-08-23T04:35:25.492Z,90.60
2022-08-23T04:37:53.142Z,90.60
2022-08-23T04:40:38.554Z,90.60
2022-08-23T04:43:05.395Z,90.60
2022-08-23T04:45:32.660Z,90.70
2022-08-23T04:47:59.753Z,90.70
2022-08-23T04:50:26.611Z,90.70
2022-08-23T04:52:53.312Z,90.70
2022-08-23T04:55:20.161Z,90.70
2022-08-23T04:57:46.866Z,90.60
2022-08-23T05:00:15.445Z,90.60
2022-08-23T05:02:42.525Z,90.60
2022-08-23T05:05:11.507Z,90.90
2022-08-23T05:07:42.117Z,90.70
2022-08-23T05:10:12.915Z,90.70
2022-08-23T05:12:40.201Z,90.70
2022-08-23T05:15:08.002Z,90.70
2022-08-23T05:17:34.864Z,90.80
2022-08-23T05:20:03.604Z,90.80
2022-08-23T05:22:34.628Z,90.80
2022-08-23T05:25:01.469Z,90.80
2022-08-23T05:27:28.197Z,90.90
2022-08-23T05:29:54.881Z,90.80
2022-08-23T05:32:25.094Z,91.10
2022-08-23T05:34:51.728Z,91.50
2022-08-23T05:37:18.645Z,91.60
2022-08-23T05:39:45.575Z,91.50
2022-08-23T05:42:14.437Z,91.40
2022-08-23T05:44:41.591Z,91.40
2022-08-23T05:47:11.480Z,91.30
2022-08-23T05:49:39.481Z,91.20
2022-08-23T05:52:08.297Z,91.30
2022-08-23T05:54:35.590Z,91.40
2022-08-23T05:57:02.528Z,91.90
2022-08-23T05:59:30.942Z,91.60
2022-08-23T06:01:57.677Z,91.60
2022-08-23T06:04:24.442Z,91.70
2022-08-23T06:06:51.240Z,91.60
2022-08-23T06:09:18.540Z,91.80
2022-08-23T06:11:47.496Z,91.80
2022-08-23T06:14:15.583Z,91.70
2022-08-23T06:16:46.456Z,91.80
2022-08-23T06:19:14.415Z,91.60
2022-08-23T06:21:41.805Z,91.60
2022-08-23T06:24:09.567Z,91.90
2022-08-23T06:26:39.175Z,91.90
2022-08-23T06:29:10.631Z,92.70
2022-08-23T06:31:48.746Z,93.10
2022-08-23T06:34:41.649Z,92.90
2022-08-23T06:37:14.615Z,92.40
2022-08-23T06:39:42.505Z,92.50
2022-08-23T06:42:34.884Z,92.50
2022-08-23T06:44:58.587Z,94.00
2022-08-23T06:47:26.639Z,94.90
2022-08-23T06:49:57.732Z,95.50
2022-08-23T06:52:25.532Z,94.70
2022-08-23T06:54:52.518Z,94.80
2022-08-23T06:57:20.591Z,95.10
2022-08-23T06:59:49.087Z,94.40
2022-08-23T07:02:16.133Z,94.70
2022-08-23T07:04:42.990Z,93.80
2022-08-23T07:07:11.782Z,93.50
2022-08-23T07:09:40.181Z,93.70
2022-08-23T07:12:07.230Z,92.90
2022-08-23T07:14:34.121Z,92.70
2022-08-23T07:17:03.351Z,92.10
2022-08-23T07:19:32.477Z,91.50
2022-08-23T07:22:00.685Z,92.10
2022-08-23T07:24:32.698Z,90.30
2022-08-23T07:27:01.458Z,87.20
2022-08-23T07:29:30.020Z,85.20
2022-08-23T07:31:57.144Z,83.90
2022-08-23T07:34:26.283Z,84.50
2022-08-23T07:36:54.045Z,86.00
2022-08-23T07:39:22.346Z,85.70
2022-08-23T07:41:49.852Z,84.90
2022-08-23T07:44:18.858Z,88.00
2022-08-23T07:46:49.911Z,86.30
2022-08-23T07:49:16.981Z,86.30
2022-08-23T07:51:47.612Z,84.80
2022-08-23T07:54:14.846Z,84.60
2022-08-23T07:56:41.732Z,85.70
2022-08-23T07:59:09.928Z,85.00
2022-08-23T08:01:36.930Z,82.80
2022-08-23T08:04:08.032Z,85.20
2022-08-23T08:06:56.130Z,86.50
2022-08-23T08:09:34.845Z,85.50
2022-08-23T08:12:01.566Z,86.30
2022-08-23T08:14:28.383Z,85.60
2022-08-23T08:16:58.686Z,85.80
2022-08-23T08:19:25.676Z,85.90
2022-08-23T08:21:53.244Z,85.60
2022-08-23T08:24:20.062Z,83.90
2022-08-23T08:26:46.940Z,79.20
2022-08-23T08:29:14.597Z,84.80
2022-08-23T08:31:42.999Z,85.40
2022-08-23T08:34:10.298Z,80.20
2022-08-23T08:36:46.725Z,85.80
2022-08-23T08:39:18.789Z,79.20
2022-08-23T08:42:02.799Z,81.50
2022-08-23T08:44:54.727Z,84.80
2022-08-23T08:47:47.422Z,83.60
2022-08-23T08:50:28.920Z,84.40
2022-08-23T08:53:02.024Z,84.60
2022-08-23T08:55:44.808Z,82.60
2022-08-23T08:58:20.739Z,85.30
2022-08-23T09:00:47.509Z,85.70
2022-08-23T09:03:20.469Z,86.20
2022-08-23T09:06:13.365Z,83.40
2022-08-23T09:08:48.056Z,79.40
2022-08-23T09:11:39.445Z,85.10
2022-08-23T09:14:15.191Z,84.60
2022-08-23T09:17:10.824Z,83.90
2022-08-23T09:19:39.973Z,84.30
2022-08-23T09:22:17.202Z,83.50
2022-08-23T09:24:44.024Z,83.20
2022-08-23T09:27:11.612Z,84.90
2022-08-23T09:29:50.589Z,86.10
2022-08-23T09:32:32.977Z,83.00
2022-08-23T09:35:11.389Z,85.60
2022-08-23T09:38:00.313Z,85.60
2022-08-23T09:40:44.720Z,85.10
2022-08-23T09:43:17.967Z,81.90
2022-08-23T09:45:51.998Z,83.20
2022-08-23T09:48:36.493Z,83.60
2022-08-23T09:51:17.932Z,82.30
2022-08-23T09:54:11.688Z,81.10
2022-08-23T09:56:45.078Z,81.50
2022-08-23T09:59:27.452Z,84.70
2022-08-23T10:01:57.115Z,81.20
2022-08-23T10:04:29.946Z,78.30
2022-08-23T10:06:56.982Z,83.80
2022-08-23T10:09:30.027Z,79.80
2022-08-23T10:11:59.441Z,82.80
2022-08-23T10:14:30.586Z,83.20
2022-08-23T10:17:05.217Z,79.30
2022-08-23T10:19:42.966Z,78.90
2022-08-23T10:22:18.545Z,78.40
2022-08-23T10:25:18.591Z,82.80
2022-08-23T10:28:29.599Z,81.00
2022-08-23T10:31:11.497Z,78.20
2022-08-23T10:33:38.186Z,77.00
2022-08-23T10:36:23.284Z,80.30
2022-08-23T10:38:58.360Z,81.30
2022-08-23T10:41:49.591Z,76.10
2022-08-23T10:44:37.718Z,77.70
2022-08-23T10:47:28.126Z,74.80
2022-08-23T10:49:56.814Z,76.40
2022-08-23T10:52:34.721Z,78.60
2022-08-23T10:55:17.148Z,79.70
2022-08-23T10:57:46.895Z,78.20
2022-08-23T11:00:21.008Z,78.20
2022-08-23T11:03:03.295Z,77.10
2022-08-23T11:05:35.264Z,77.40
2022-08-23T11:08:05.665Z,76.30
2022-08-23T11:10:39.245Z,76.80
2022-08-23T11:13:24.007Z,78.80
2022-08-23T11:16:12.834Z,80.60
2022-08-23T11:18:46.884Z,77.00
2022-08-23T11:21:28.517Z,80.40
2022-08-23T11:23:58.450Z,79.60
2022-08-23T11:26:34.140Z,79.60
2022-08-23T11:29:07.991Z,79.50
2022-08-23T11:31:48.879Z,77.70
2022-08-23T11:34:28.964Z,75.40
2022-08-23T11:37:18.470Z,81.20
2022-08-23T11:40:00.446Z,80.60
2022-08-23T11:42:51.861Z,79.40
2022-08-23T11:45:35.712Z,74.00
2022-08-23T11:48:29.890Z,78.90
2022-08-23T11:51:07.363Z,77.90
2022-08-23T11:53:52.918Z,73.90
2022-08-23T11:56:31.922Z,78.70
2022-08-23T11:59:41.527Z,79.70
2022-08-23T12:03:02.496Z,78.50
2022-08-23T12:05:35.236Z,75.70
2022-08-23T12:08:02.592Z,79.60
2022-08-23T12:10:41.749Z,76.60
2022-08-23T12:13:20.653Z,79.50
2022-08-23T12:16:25.346Z,78.20
2022-08-23T12:19:01.066Z,80.80
2022-08-23T12:21:39.986Z,81.70
2022-08-23T12:24:47.031Z,78.00
2022-08-23T12:27:16.713Z,74.80
2022-08-23T12:29:54.937Z,73.90
2022-08-23T12:32:39.675Z,72.90
2022-08-23T12:35:46.530Z,75.70
2022-08-23T12:38:17.103Z,78.30
2022-08-23T12:40:46.901Z,75.50
2022-08-23T12:43:17.453Z,70.20
2022-08-23T12:46:02.245Z,73.50
2022-08-23T12:48:33.083Z,76.30
2022-08-23T12:51:17.782Z,77.10
2022-08-23T12:53:45.833Z,77.00
2022-08-23T12:56:15.733Z,78.00
2022-08-23T12:58:49.215Z,75.70
2022-08-23T13:01:22.923Z,76.50
2022-08-23T13:03:55.648Z,73.00
2022-08-23T13:06:27.953Z,78.00
2022-08-23T13:09:02.814Z,76.50
2022-08-23T13:11:32.995Z,77.70
2022-08-23T13:14:01.197Z,76.80
2022-08-23T13:16:37.119Z,76.00
2022-08-23T13:19:24.555Z,77.30
2022-08-23T13:22:23.608Z,75.20
2022-08-23T13:25:27.403Z,74.50
2022-08-23T13:27:55.686Z,76.90
2022-08-23T13:30:36.313Z,74.90
2022-08-23T13:33:15.183Z,78.10
2022-08-23T13:35:49.714Z,76.10
2022-08-23T13:38:31.397Z,73.00
2022-08-23T13:41:01.065Z,73.10
2022-08-23T13:43:38.891Z,77.60
2022-08-23T13:46:19.383Z,73.20
2022-08-23T13:49:18.682Z,74.00
2022-08-23T13:52:37.619Z,75.10
2022-08-23T13:54:52.639Z,75.40
2022-08-23T13:57:20.603Z,73.80
2022-08-23T13:59:54.346Z,72.00
2022-08-23T14:02:23.065Z,76.90
2022-08-23T14:04:50.434Z,77.40
2022-08-23T14:07:17.889Z,74.50
2022-08-23T14:09:45.060Z,72.30
2022-08-23T14:12:15.946Z,70.10
2022-08-23T14:14:43.572Z,71.70
2022-08-23T14:17:13.037Z,73.00
2022-08-23T14:22:32.247Z,76.90
2022-08-23T14:24:59.087Z,73.70
2022-08-23T14:27:25.759Z,76.10
2022-08-23T14:29:54.370Z,74.10
2022-08-23T14:32:21.305Z,77.00
2022-08-23T14:34:47.982Z,77.00
2022-08-23T14:38:02.923Z,74.60
2022-08-23T14:40:01.885Z,75.80
2022-08-23T14:42:28.629Z,75.40
2022-08-23T14:44:55.501Z,74.80
2022-08-23T14:47:22.238Z,75.80
2022-08-23T14:49:53.870Z,73.80
2022-08-23T14:52:23.448Z,76.30
2022-08-23T14:54:50.693Z,75.30
2022-08-23T14:57:17.407Z,75.10
2022-08-23T14:59:44.367Z,76.90
2022-08-23T15:02:15.097Z,75.50
2022-08-23T15:04:42.255Z,74.80
2022-08-23T15:07:18.537Z,75.40
2022-08-23T15:09:48.138Z,75.40
2022-08-23T15:15:03.979Z,76.30
2022-08-23T15:17:31.799Z,77.10
2022-08-23T15:19:59.501Z,76.80
2022-08-23T15:22:26.303Z,77.10
2022-08-23T15:24:52.996Z,77.40
2022-08-23T15:27:20.581Z,77.00
2022-08-23T15:29:47.286Z,77.80
2022-08-23T15:32:14.013Z,77.70
2022-08-23T15:34:45.778Z,76.80
2022-08-23T15:37:14.250Z,77.50
2022-08-23T15:39:42.424Z,77.70
2022-08-23T15:42:09.327Z,76.70
2022-08-23T15:44:36.052Z,77.60
2022-08-23T15:47:04.925Z,77.30
2022-08-23T15:49:36.198Z,77.20
2022-08-23T15:52:04.365Z,78.50
2022-08-23T15:54:31.477Z,79.10
2022-08-23T15:56:58.286Z,78.90
2022-08-23T15:59:25.265Z,79.10
2022-08-23T16:01:51.948Z,79.30
2022-08-23T16:04:18.682Z,79.20
2022-08-23T16:06:45.516Z,80.70
2022-08-23T16:09:18.962Z,80.30
2022-08-23T16:11:45.655Z,79.40
2022-08-23T16:14:12.983Z,80.10
2022-08-23T16:16:41.748Z,80.10
2022-08-23T16:19:09.284Z,79.90
2022-08-23T16:21:37.786Z,80.10
2022-08-23T16:24:06.289Z,79.90
2022-08-23T16:26:37.404Z,80.30
2022-08-23T16:29:08.337Z,80.30
2022-08-23T16:31:38.283Z,80.40
2022-08-23T16:34:14.866Z,79.80
2022-08-23T16:36:44.730Z,80.60
2022-08-23T16:39:12.772Z,80.30
2022-08-23T16:41:39.930Z,80.20
2022-08-23T16:44:07.635Z,79.80
2022-08-23T16:46:36.158Z,80.70
2022-08-23T16:49:10.905Z,79.90
2022-08-23T16:51:37.716Z,80.50
2022-08-23T16:54:05.273Z,79.80
2022-08-23T16:56:33.377Z,80.00
2022-08-23T16:59:00.479Z,79.90
2022-08-23T17:01:28.326Z,80.50
2022-08-23T17:03:55.381Z,80.40
2022-08-23T17:06:22.343Z,80.10
2022-08-23T17:08:50.215Z,80.70
2022-08-23T17:11:19.485Z,80.00
2022-08-23T17:13:46.638Z,80.70
2022-08-23T17:16:14.566Z,80.10
2022-08-23T17:18:41.440Z,80.10
2022-08-23T17:21:09.239Z,79.90
2022-08-23T17:23:37.669Z,80.40
2022-08-23T17:26:08.313Z,80.50
2022-08-23T17:28:35.648Z,80.60
2022-08-23T17:31:02.758Z,80.10
2022-08-23T17:33:29.529Z,80.20
2022-08-23T17:35:56.283Z,81.20
2022-08-23T17:38:22.990Z,81.10
2022-08-23T17:40:50.261Z,81.40
2022-08-23T17:43:17.009Z,80.90
2022-08-23T17:45:46.650Z,80.60
2022-08-23T17:48:15.592Z,81.30
2022-08-23T17:50:43.714Z,81.70
2022-08-23T17:53:11.536Z,82.20
2022-08-23T17:55:39.554Z,82.50
2022-08-23T17:58:08.267Z,81.40
2022-08-23T18:00:38.940Z,81.20
2022-08-23T18:03:06.854Z,81.60
2022-08-23T18:05:35.360Z,82.90
2022-08-23T18:08:02.423Z,83.00
2022-08-23T18:10:30.123Z,83.50
2022-08-23T18:12:58.547Z,84.80
2022-08-23T18:15:31.391Z,84.50
2022-08-23T18:18:00.195Z,85.50
2022-08-23T18:20:28.738Z,86.30
2022-08-23T18:22:56.551Z,87.70
2022-08-23T18:25:23.725Z,87.70
2022-08-23T18:28:09.870Z,86.40
2022-08-23T18:30:50.566Z,87.30
2022-08-23T18:33:19.770Z,88.00
2022-08-23T18:35:52.401Z,87.90
2022-08-23T18:38:20.207Z,88.30
2022-08-23T18:40:48.336Z,87.30
2022-08-23T18:43:27.030Z,87.30
2022-08-23T18:46:03.978Z,86.30
2022-08-23T18:48:30.851Z,88.20
2022-08-23T18:50:57.955Z,88.60
2022-08-23T18:53:24.966Z,87.50
2022-08-23T18:55:52.423Z,88.50
2022-08-23T18:58:21.065Z,89.20
2022-08-23T19:00:50.633Z,88.30
2022-08-23T19:03:17.816Z,89.40
2022-08-23T19:05:45.243Z,89.30
2022-08-23T19:08:13.264Z,89.40
2022-08-23T19:10:41.210Z,89.60
2022-08-23T19:13:09.173Z,89.00
2022-08-23T19:15:36.904Z,90.50
2022-08-23T19:18:04.379Z,90.70
2022-08-23T19:20:31.262Z,91.50
2022-08-23T19:22:59.144Z,91.10
2022-08-23T19:25:26.772Z,90.60
2022-08-23T19:27:53.591Z,88.80
2022-08-23T19:30:20.456Z,90.30
2022-08-23T19:32:47.179Z,90.50
2022-08-23T19:35:14.545Z,90.40
2022-08-23T19:37:41.481Z,90.30
2022-08-23T19:40:09.007Z,91.00
2022-08-23T19:42:37.771Z,91.10
2022-08-23T19:45:06.318Z,91.10
2022-08-23T19:47:33.549Z,91.80
2022-08-23T19:50:00.640Z,91.50
2022-08-23T19:52:27.352Z,91.40
2022-08-23T19:54:57.936Z,91.80
2022-08-23T19:57:32.788Z,92.10
2022-08-23T20:00:01.092Z,92.30
2022-08-23T20:02:28.546Z,92.00
2022-08-23T20:04:55.370Z,91.40
2022-08-23T20:07:22.104Z,91.10
2022-08-23T20:09:48.787Z,91.90
2022-08-23T20:12:16.503Z,91.00
2022-08-23T20:14:43.609Z,90.30
2022-08-23T20:17:10.659Z,90.10
2022-08-23T20:19:37.589Z,90.10
2022-08-23T20:22:23.825Z,90.10
2022-08-23T20:24:52.977Z,91.50
2022-08-23T20:27:28.336Z,90.60
2022-08-23T20:30:01.491Z,90.50
2022-08-23T20:32:29.292Z,90.30
2022-08-23T20:34:56.043Z,90.30
2022-08-23T20:37:22.789Z,90.30
2022-08-23T20:39:49.489Z,90.20
2022-08-23T20:42:16.296Z,90.20
2022-08-23T20:44:43.006Z,90.20
2022-08-23T20:47:10.030Z,90.30
2022-08-23T20:49:37.180Z,90.20
2022-08-23T20:52:04.134Z,90.30
2022-08-23T20:54:32.344Z,90.30
2022-08-23T20:56:59.065Z,90.30
2022-08-23T20:59:26.002Z,90.30
2022-08-23T21:01:52.867Z,90.40
2022-08-23T21:04:20.244Z,90.40
2022-08-23T21:06:52.360Z,90.70
2022-08-23T21:09:23.447Z,90.50
2022-08-23T21:11:53.339Z,90.50
2022-08-23T21:14:20.707Z,90.50
2022-08-23T21:16:48.130Z,90.50
2022-08-23T21:19:15.864Z,90.60
2022-08-23T21:21:43.248Z,90.60
2022-08-23T21:24:12.156Z,90.70
2022-08-23T21:26:40.009Z,90.70
2022-08-23T21:29:08.125Z,90.70
2022-08-23T21:31:35.379Z,90.70
2022-08-23T21:34:02.425Z,90.70
2022-08-23T21:36:29.586Z,90.80
2022-08-23T21:38:56.656Z,90.80
2022-08-23T21:41:44.463Z,90.90
2022-08-23T21:44:13.962Z,90.90
2022-08-23T21:46:41.654Z,90.90
2022-08-23T21:49:09.146Z,91.00
2022-08-23T21:51:39.536Z,91.00
2022-08-23T21:54:07.625Z,91.00
2022-08-23T21:56:34.739Z,91.10
2022-08-23T21:59:03.901Z,91.10
2022-08-23T22:01:34.075Z,91.00
2022-08-23T22:04:01.477Z,91.10
2022-08-23T22:06:28.675Z,91.20
2022-08-23T22:08:55.931Z,91.20
2022-08-23T22:11:25.939Z,91.20
2022-08-23T22:13:53.875Z,91.20
2022-08-23T22:16:21.330Z,91.20
2022-08-23T22:18:48.705Z,91.30
2022-08-23T22:21:15.492Z,91.30
2022-08-23T22:23:44.715Z,91.40
2022-08-23T22:26:13.889Z,91.40
2022-08-23T22:28:44.623Z,91.50
2022-08-23T22:31:13.687Z,91.50
2022-08-23T22:33:41.890Z,91.50
2022-08-23T22:36:13.325Z,91.60
2022-08-23T22:38:40.073Z,91.50
2022-08-23T22:41:06.894Z,91.60
2022-08-23T22:43:33.701Z,91.70
2022-08-23T22:46:02.612Z,91.70
2022-08-23T22:48:31.479Z,91.70
2022-08-23T22:51:09.199Z,91.70
2022-08-23T22:53:37.489Z,91.80
2022-08-23T22:56:05.449Z,91.80
2022-08-23T22:58:33.027Z,91.80
2022-08-23T23:01:00.046Z,91.80
2022-08-23T23:03:31.556Z,91.90
2022-08-23T23:05:58.352Z,91.90
2022-08-23T23:08:27.579Z,91.90
2022-08-23T23:11:00.136Z,92.00
2022-08-23T23:13:29.461Z,92.00
2022-08-23T23:15:57.345Z,91.90
2022-08-23T23:18:25.544Z,92.10
2022-08-23T23:20:52.963Z,92.10
2022-08-23T23:23:22.390Z,92.10
2022-08-23T23:25:50.458Z,92.20
2022-08-23T23:28:18.975Z,92.20
2022-08-23T23:30:48.636Z,92.20
2022-08-23T23:33:15.584Z,92.20
2022-08-23T23:35:42.492Z,92.30
2022-08-23T23:38:10.318Z,92.20
2022-08-23T23:40:38.473Z,92.30
2022-08-23T23:43:05.706Z,92.30
2022-08-23T23:45:36.871Z,92.20
2022-08-23T23:48:03.963Z,92.30
2022-08-23T23:50:35.210Z,92.40
2022-08-23T23:53:01.913Z,92.40
2022-08-23T23:55:28.674Z,92.40
2022-08-23T23:57:56.493Z,92.40
